Terminal Aerodrome Forecast
Issued by NWS Binghamton, NY

Home | Current Version | Previous Version | Text Only | Print | Product List | Glossary On
Versions: 1 2 3 4 5 6 7 8 9 10 11 12 13 14 15 16 17 18 19 20
000
FTUS41 KBGM 261402 AAA
TAFAVP
TAF AMD
KAVP 261402Z 2614/2712 04005KT P6SM OVC015
      TEMPO 2614/2618 SCT015 BKN050
     FM261800 VRB03KT P6SM SCT025 BKN060
      TEMPO 2618/2621 OVC025
     FM270600 VRB03KT P6SM OVC015=

USA.gov is the U.S. government's official web portal to all federal, state and local government web resources and services.